Time;durP1;ratioP1;P1;durP2;ratioP2;P2;SDS_P1;SDS_P2;PMS_P1;PMS_P2;Temp;Humidity;BMP_temperature;BMP_pressure;BME280_temperature;BME280_humidity;BME280_pressure;Samples;Min_cycle;Max_cycle;Signal;HPM_P1;HPM_P2
2022/09/02 03:58:05;;;;;;;0.80;0.80;;;;;;;15.72;54.77;100468.69;6567362;26;20060;-89
2022/09/02 04:01:15;;;;;;;0.85;0.85;;;;;;;15.67;55.75;100471.16;6621575;26;35136;-89
2022/09/02 04:04:19;;;;;;;1.30;0.90;;;;;;;15.65;54.01;100465.13;6610365;27;33699;-89
2022/09/02 04:07:25;;;;;;;0.82;0.80;;;;;;;15.64;54.21;100468.88;6614607;27;33919;-89
2022/09/02 04:10:28;;;;;;;1.48;1.00;;;;;;;15.59;53.95;100464.09;6609901;27;34441;-88
2022/09/02 04:13:31;;;;;;;1.00;0.57;;;;;;;15.54;55.48;100474.72;6608853;27;34845;-89
2022/09/02 04:16:35;;;;;;;0.70;0.60;;;;;;;15.56;54.48;100472.66;6609098;26;35598;-89
2022/09/02 04:19:39;;;;;;;0.80;0.80;;;;;;;15.61;54.83;100469.28;6589067;27;32398;-89
2022/09/02 04:22:42;;;;;;;0.88;0.82;;;;;;;15.58;54.53;100470.53;6611306;27;33622;-89
2022/09/02 04:25:45;;;;;;;1.60;1.08;;;;;;;15.65;54.22;100467.84;6612559;26;34003;-88
2022/09/02 04:28:52;;;;;;;2.42;0.70;;;;;;;15.62;54.40;100484.53;6624274;26;34512;-89
2022/09/02 04:31:55;;;;;;;1.87;0.80;;;;;;;15.65;55.83;100486.84;6625071;26;35450;-88
2022/09/02 04:34:58;;;;;;;1.20;0.85;;;;;;;15.65;53.89;100470.56;6620694;26;34176;-89
2022/09/02 04:38:02;;;;;;;0.60;0.60;;;;;;;15.70;54.42;100473.50;6608466;27;34737;-89
2022/09/02 04:41:27;;;;;;;0.93;0.75;;;;;;;15.76;56.48;100474.53;6609603;27;34398;-89
2022/09/02 04:44:30;;;;;;;1.30;0.90;;;;;;;15.78;53.87;100473.28;6608695;27;34508;-89
2022/09/02 04:47:34;;;;;;;1.10;0.90;;;;;;;15.78;53.67;100481.44;6609106;27;33982;-89
2022/09/02 04:50:39;;;;;;;1.37;1.00;;;;;;;15.80;53.30;100481.22;6607942;26;33853;-89
2022/09/02 04:53:44;;;;;;;0.70;0.62;;;;;;;15.81;53.95;100472.03;6609900;27;35163;-89
2022/09/02 04:56:48;;;;;;;1.90;0.80;;;;;;;15.88;53.14;100478.28;6609549;27;35428;-87
2022/09/02 04:59:54;;;;;;;8.98;1.20;;;;;;;15.88;53.27;100478.28;6587219;27;35047;-93
2022/09/02 05:03:00;;;;;;;2.40;1.00;;;;;;;15.90;52.49;100480.81;6608114;27;33645;-86
2022/09/02 05:06:07;;;;;;;0.70;0.70;;;;;;;15.93;53.60;100481.22;6609549;27;34073;-89
2022/09/02 05:09:11;;;;;;;0.62;0.60;;;;;;;15.93;53.05;100483.91;6610534;27;34487;-89
2022/09/02 05:12:14;;;;;;;2.58;1.10;;;;;;;16.01;52.53;100481.00;6609978;27;34401;-89
2022/09/02 05:15:18;;;;;;;1.23;0.70;;;;;;;16.00;53.55;100487.47;6611755;27;34899;-89
2022/09/02 05:18:22;;;;;;;1.50;0.80;;;;;;;16.03;53.53;100484.34;6608014;27;34548;-89
2022/09/02 05:21:25;;;;;;;1.37;0.90;;;;;;;16.06;53.28;100486.62;6607759;27;34160;-89
2022/09/02 05:24:29;;;;;;;1.25;0.98;;;;;;;16.07;53.65;100484.75;6607550;27;34020;-89
2022/09/02 05:27:32;;;;;;;1.90;1.30;;;;;;;16.22;52.86;100481.78;6621609;27;33944;-87
2022/09/02 05:30:38;;;;;;;2.25;0.95;;;;;;;16.27;53.37;100490.16;6614735;27;35485;-87
2022/09/02 05:33:41;;;;;;;2.55;1.00;;;;;;;16.30;52.10;100476.12;6587758;27;33165;-87
2022/09/02 05:36:46;;;;;;;1.98;0.80;;;;;;;16.37;52.38;100485.09;6587645;27;32938;-87
2022/09/02 05:39:49;;;;;;;0.68;0.68;;;;;;;16.47;52.18;100485.50;6606918;27;33990;-87
2022/09/02 05:42:54;;;;;;;3.97;0.98;;;;;;;16.61;51.28;100480.81;6606387;27;33936;-86
2022/09/02 05:46:07;;;;;;;2.85;0.70;;;;;;;16.64;51.72;100483.12;6586370;27;32738;-86
2022/09/02 05:49:16;;;;;;;1.20;0.88;;;;;;;16.71;53.52;100480.41;6605232;27;34738;-86
2022/09/02 05:52:20;;;;;;;;;;;;;;;16.81;51.37;100488.94;6589536;27;34096;-86
2022/09/02 05:55:23;;;;;;;0.82;0.82;;;;;;;16.82;49.92;100489.78;6606651;27;33973;-86
2022/09/02 05:58:25;;;;;;;0.70;0.70;;;;;;;16.90;49.38;100476.75;6610498;27;34517;-85
2022/09/02 06:01:29;;;;;;;1.58;0.90;;;;;;;16.96;50.62;100475.06;6612532;26;33795;-86
2022/09/02 06:04:43;;;;;;;0.80;0.70;;;;;;;17.00;49.99;100485.31;6607505;27;33888;-85
2022/09/02 06:07:46;;;;;;;1.65;0.68;;;;;;;17.16;49.70;100483.94;6587344;27;34154;-87
2022/09/02 06:10:50;;;;;;;1.55;0.90;;;;;;;17.31;49.54;100482.81;6607617;27;34490;-86
2022/09/02 06:13:54;;;;;;;0.93;0.65;;;;;;;17.42;48.75;100487.56;6607125;27;34244;-87
2022/09/02 06:16:58;;;;;;;2.85;1.02;;;;;;;17.43;49.21;100491.94;6585607;27;32272;-86
2022/09/02 06:20:02;;;;;;;1.23;0.75;;;;;;;17.50;49.51;100490.00;6606085;27;34690;-86
2022/09/02 06:23:07;;;;;;;1.98;0.80;;;;;;;17.49;48.47;100479.31;6606013;27;34847;-86
2022/09/02 06:26:15;;;;;;;2.47;1.00;;;;;;;17.47;48.75;100484.19;6606629;27;34115;-86
2022/09/02 06:29:19;;;;;;;3.20;0.90;;;;;;;17.65;48.54;100486.97;6619880;27;33827;-86
2022/09/02 06:32:22;;;;;;;0.98;0.80;;;;;;;17.74;48.39;100488.34;6625379;27;34346;-86
2022/09/02 06:35:26;;;;;;;2.47;0.68;;;;;;;17.72;47.66;100484.19;6609196;27;35381;-90
2022/09/02 06:38:34;;;;;;;4.12;1.10;;;;;;;17.94;48.55;100490.09;6607372;27;34933;-91
2022/09/02 06:41:40;;;;;;;1.83;0.75;;;;;;;18.07;47.21;100492.69;6606381;27;33547;-87
2022/09/02 06:44:44;;;;;;;1.12;0.77;;;;;;;18.08;47.01;100494.37;6586507;27;32805;-87
2022/09/02 06:47:47;;;;;;;1.62;1.05;;;;;;;18.13;47.62;100497.25;6606155;27;33822;-87
2022/09/02 06:50:49;;;;;;;0.60;0.60;;;;;;;18.10;46.97;100495.78;6608138;27;33743;-87
2022/09/02 06:53:53;;;;;;;0.98;0.80;;;;;;;18.06;49.05;100496.47;6608670;26;35478;-86
2022/09/02 06:56:58;;;;;;;0.85;0.80;;;;;;;18.19;47.73;100495.50;6608766;27;34747;-87
2022/09/02 07:00:09;;;;;;;2.70;1.20;;;;;;;18.20;47.25;100498.03;6607941;27;33527;-87
2022/09/02 07:06:36;;;;;;;0.85;0.85;;;;;;;18.41;47.26;100502.19;6588108;27;32366;-87
2022/09/02 07:09:43;;;;;;;1.33;0.80;;;;;;;18.19;46.39;100490.88;6607677;27;33760;-87
2022/09/02 07:12:46;;;;;;;2.33;0.60;;;;;;;18.41;48.16;100496.75;6608036;27;33694;-87
2022/09/02 07:15:49;;;;;;;1.62;0.80;;;;;;;18.53;46.91;100494.09;6588121;27;33184;-87
2022/09/02 07:18:52;;;;;;;1.05;0.85;;;;;;;18.69;48.77;100493.50;6607946;27;34200;-87
2022/09/02 07:21:55;;;;;;;1.00;0.90;;;;;;;18.97;47.26;100489.41;6607441;27;34199;-87
2022/09/02 07:24:59;;;;;;;0.85;0.85;;;;;;;18.94;46.71;100498.88;6607415;27;34015;-87
2022/09/02 07:28:01;;;;;;;2.17;0.90;;;;;;;19.04;47.59;100492.84;6608462;27;33759;-87
2022/09/02 07:31:10;;;;;;;1.37;1.10;;;;;;;19.11;45.71;100495.50;6588107;27;33787;-87
2022/09/02 07:34:13;;;;;;;1.77;0.82;;;;;;;19.11;46.29;100499.06;6602894;27;32665;-87
2022/09/02 07:37:16;;;;;;;1.33;0.75;;;;;;;19.18;46.70;100498.97;6614140;27;35507;-87
2022/09/02 07:40:19;;;;;;;0.60;0.60;;;;;;;19.16;46.02;100495.63;6611501;26;34708;-87
2022/09/02 07:43:22;;;;;;;1.98;1.10;;;;;;;19.22;46.81;100500.19;6606436;27;34720;-87
2022/09/02 07:46:28;;;;;;;1.52;0.90;;;;;;;19.17;46.80;100498.13;6607126;27;33854;-87
2022/09/02 07:49:32;;;;;;;1.15;0.95;;;;;;;19.11;46.85;100492.78;6607684;27;34420;-87
2022/09/02 07:53:05;;;;;;;1.85;1.00;;;;;;;19.21;46.38;100501.22;6607319;27;33774;-87
2022/09/02 07:56:08;;;;;;;2.45;1.40;;;;;;;19.23;46.58;100494.47;6607811;27;35162;-91
2022/09/02 07:59:12;;;;;;;1.10;0.93;;;;;;;19.36;46.94;100500.81;6588837;27;33276;-91
2022/09/02 08:02:17;;;;;;;1.35;0.90;;;;;;;19.32;46.18;100497.72;6615300;26;34920;-91
2022/09/02 08:05:21;;;;;;;1.77;1.33;;;;;;;19.22;45.60;100498.28;6609295;27;34488;-87
2022/09/02 08:08:26;;;;;;;1.60;0.88;;;;;;;19.17;46.22;100492.69;6610676;27;34095;-88
2022/09/02 08:11:30;;;;;;;2.50;0.75;;;;;;;19.30;45.73;100491.63;6610777;27;34116;-87
2022/09/02 08:14:33;;;;;;;3.47;1.00;;;;;;;19.39;47.44;100490.28;6622046;27;34380;-87
2022/09/02 08:17:39;;;;;;;1.20;1.02;;;;;;;19.64;46.13;100492.81;6623610;27;34388;-88
2022/09/02 08:20:42;;;;;;;1.25;1.00;;;;;;;19.76;45.49;100494.75;6614003;27;35451;-87
2022/09/02 08:23:49;;;;;;;5.85;1.20;;;;;;;19.70;45.31;100493.81;6608769;26;34132;-87
2022/09/02 08:26:51;;;;;;;2.37;0.93;;;;;;;19.90;45.41;100488.84;6585888;27;32655;-87
2022/09/02 08:29:54;;;;;;;2.15;1.02;;;;;;;20.20;46.12;100490.59;6613384;27;34389;-87
2022/09/02 08:32:57;;;;;;;3.45;1.12;;;;;;;20.21;44.53;100486.81;6609199;27;34035;-87
2022/09/02 08:36:09;;;;;;;1.70;1.00;;;;;;;20.10;44.78;100487.66;6586711;27;32560;-87
2022/09/02 08:39:12;;;;;;;1.12;0.80;;;;;;;19.79;44.22;100491.56;6586937;26;32737;-88
2022/09/02 08:42:57;;;;;;;3.83;0.85;;;;;;;20.00;45.12;100482.75;6587417;27;32370;-88
2022/09/02 08:46:03;;;;;;;1.23;1.00;;;;;;;20.21;45.06;100480.50;6586555;27;32314;-87
2022/09/02 08:49:14;;;;;;;1.05;0.93;;;;;;;20.22;44.83;100474.81;6588323;27;32706;-87
2022/09/02 08:52:41;;;;;;;1.83;1.00;;;;;;;20.36;44.23;100472.66;6588376;27;32717;-87
2022/09/02 08:55:54;;;;;;;1.60;1.17;;;;;;;20.29;43.22;100467.31;6586077;27;32816;-87
2022/09/02 08:59:01;;;;;;;1.52;1.02;;;;;;;20.46;44.23;100478.34;6585555;27;32626;-88
2022/09/02 09:02:22;;;;;;;1.98;0.90;;;;;;;20.57;44.11;100460.28;6605845;27;34761;-86
2022/09/02 09:05:32;;;;;;;1.12;0.62;;;;;;;20.65;43.62;100473.59;6606391;27;34531;-85
2022/09/02 09:08:49;;;;;;;1.55;0.80;;;;;;;20.86;44.40;100472.09;6606987;27;34283;-86
2022/09/02 09:12:09;;;;;;;1.52;0.95;;;;;;;20.87;44.94;100471.00;6607456;27;34344;-86
2022/09/02 09:15:18;;;;;;;1.48;0.85;;;;;;;21.04;45.42;100479.28;6589583;27;34275;-85
2022/09/02 09:18:33;;;;;;;3.08;1.20;;;;;;;21.19;44.36;100474.06;6626293;27;34398;-85
2022/09/02 09:21:37;;;;;;;33.22;3.37;;;;;;;21.43;43.14;100463.84;6604600;27;33827;-85
2022/09/02 09:24:43;;;;;;;1.58;1.08;;;;;;;21.57;44.26;100463.53;6616740;27;34282;-85
2022/09/02 09:27:46;;;;;;;0.85;0.77;;;;;;;21.44;42.69;100464.66;6607763;27;34786;-85
2022/09/02 09:30:48;;;;;;;1.58;0.90;;;;;;;21.29;42.72;100468.81;6597930;27;33658;-85
2022/09/02 09:34:03;;;;;;;2.55;1.17;;;;;;;21.41;43.05;100465.16;6622063;27;35086;-86
2022/09/02 09:37:06;;;;;;;3.50;0.93;;;;;;;21.50;42.89;100463.72;6606914;27;33986;-85
2022/09/02 09:40:21;;;;;;;1.35;0.85;;;;;;;21.77;42.59;100463.03;6607322;27;34067;-85
2022/09/02 09:43:30;;;;;;;1.27;1.17;;;;;;;21.28;42.40;100463.56;6603013;27;33177;-85
2022/09/02 09:46:33;;;;;;;;;;;;;;;21.38;43.10;100461.03;6617220;26;34472;-85
2022/09/02 09:49:37;;;;;;;1.67;1.40;;;;;;;21.51;42.96;100460.69;6607651;27;35096;-85
2022/09/02 09:52:41;;;;;;;3.53;1.08;;;;;;;21.82;42.95;100458.47;6601194;27;33036;-85
2022/09/02 09:55:54;;;;;;;2.25;1.62;;;;;;;22.03;42.03;100454.13;6615916;27;35368;-88
2022/09/02 09:58:58;;;;;;;1.40;1.20;;;;;;;22.16;41.02;100447.44;6607328;27;34771;-86
2022/09/02 10:02:00;;;;;;;1.02;0.90;;;;;;;22.48;41.21;100446.81;6606690;27;33908;-85
2022/09/02 10:05:18;;;;;;;3.80;1.33;;;;;;;22.33;40.52;100436.47;6606666;27;35108;-85
2022/09/02 10:08:24;;;;;;;1.55;1.12;;;;;;;22.16;40.12;100431.81;6585739;27;33148;-86
2022/09/02 10:11:33;;;;;;;1.15;1.05;;;;;;;22.46;40.68;100440.72;6607010;27;33659;-85
2022/09/02 10:14:47;;;;;;;1.50;1.27;;;;;;;22.78;40.50;100433.44;6606975;27;34889;-86
2022/09/02 10:18:15;;;;;;;1.33;1.10;;;;;;;23.11;40.25;100436.28;6594586;27;32546;-86
2022/09/02 10:21:40;;;;;;;2.47;1.23;;;;;;;23.33;39.39;100434.28;6587602;27;32813;-85
2022/09/02 10:25:06;;;;;;;4.25;1.58;;;;;;;23.71;39.13;100438.75;6606746;27;33977;-85
2022/09/02 10:28:27;;;;;;;1.23;1.20;;;;;;;24.05;40.27;100426.63;6608739;27;34839;-85
2022/09/02 10:31:51;;;;;;;1.92;1.58;;;;;;;24.74;38.72;100439.34;6615433;27;33726;-87
2022/09/02 10:35:13;;;;;;;1.85;1.20;;;;;;;25.27;36.35;100429.00;6609639;27;34196;-86
2022/09/02 10:38:37;;;;;;;1.58;1.33;;;;;;;25.11;35.99;100423.44;6607995;27;33869;-85
2022/09/02 10:41:45;;;;;;;1.58;1.23;;;;;;;24.94;36.85;100436.63;6562079;27;32438;-86
2022/09/02 10:45:23;;;;;;;2.08;0.93;;;;;;;24.61;36.86;100430.50;6579955;27;33984;-86
2022/09/02 10:48:26;;;;;;;4.03;1.30;;;;;;;24.61;37.10;100433.25;6568411;27;33744;-85
2022/09/02 10:51:51;;;;;;;1.52;1.10;;;;;;;24.56;36.63;100438.72;6580219;27;34269;-85
2022/09/02 10:55:11;;;;;;;1.70;1.10;;;;;;;24.35;36.14;100429.53;6560289;27;33900;-86
2022/09/02 10:58:18;;;;;;;1.10;1.05;;;;;;;24.39;37.42;100427.88;6579113;27;34818;-86
2022/09/02 11:01:27;;;;;;;1.42;0.90;;;;;;;24.35;37.75;100424.03;6580180;27;33870;-86
2022/09/02 11:04:55;;;;;;;1.90;1.10;;;;;;;24.60;36.37;100431.59;6580441;27;34909;-89
2022/09/02 11:08:11;;;;;;;1.48;1.35;;;;;;;24.74;38.21;100428.31;6579292;27;33664;-86
2022/09/02 11:11:46;;;;;;;1.62;1.27;;;;;;;24.39;37.29;100432.56;6578874;27;33710;-86
2022/09/02 11:15:17;;;;;;;1.12;1.02;;;;;;;24.40;37.19;100421.31;6560202;27;33331;-86
2022/09/02 11:18:23;;;;;;;4.87;1.37;;;;;;;24.31;38.41;100420.16;6588596;27;34786;-86
2022/09/02 11:21:56;;;;;;;1.23;1.12;;;;;;;24.59;37.86;100421.66;6579267;27;34083;-86
2022/09/02 11:25:40;;;;;;;1.65;1.20;;;;;;;24.70;36.93;100419.78;6573660;27;34143;-86
2022/09/02 11:28:58;;;;;;;1.50;1.25;;;;;;;24.63;37.80;100414.53;6555261;27;34061;-86
2022/09/02 11:32:26;;;;;;;1.10;1.02;;;;;;;24.81;39.41;100415.97;6573973;27;34330;-86
2022/09/02 11:35:37;;;;;;;3.23;1.40;;;;;;;25.08;36.74;100407.47;6553194;27;32474;-86
2022/09/02 11:39:04;;;;;;;1.48;1.20;;;;;;;25.06;35.51;100406.91;6575124;27;34939;-86
2022/09/02 11:42:25;;;;;;;1.98;1.35;;;;;;;25.51;35.21;100399.81;6583342;27;33105;-86
2022/09/02 11:45:42;;;;;;;2.10;1.30;;;;;;;25.53;35.37;100400.34;6582988;27;32632;-86
2022/09/02 11:49:00;;;;;;;2.42;1.10;;;;;;;26.32;34.18;100406.25;6601293;27;33688;-86
2022/09/02 11:52:33;;;;;;;1.75;1.30;;;;;;;27.75;32.14;100405.31;6601389;26;34631;-86
2022/09/02 11:55:40;;;;;;;1.62;1.45;;;;;;;28.78;28.28;100401.38;6582989;27;33708;-87
2022/09/02 11:58:50;;;;;;;1.27;1.17;;;;;;;31.18;27.81;100392.13;6604132;27;34053;-87
2022/09/02 12:01:54;;;;;;;1.80;0.90;;;;;;;32.17;24.03;100380.91;6617020;26;33948;-89
2022/09/02 12:05:30;;;;;;;1.42;1.30;;;;;;;30.36;27.16;100386.75;6611551;27;34889;-88
2022/09/02 12:08:35;;;;;;;0.80;0.73;;;;;;;30.27;26.74;100395.84;6544825;27;32300;-88
2022/09/02 12:11:44;;;;;;;3.83;1.15;;;;;;;29.29;27.36;100381.22;6583348;27;33924;-88
2022/09/02 12:14:46;;;;;;;1.83;1.08;;;;;;;30.77;27.12;100380.28;6587690;26;32324;-88
2022/09/02 12:17:50;;;;;;;4.32;1.23;;;;;;;31.71;25.00;100379.41;6604939;26;35355;-89
2022/09/02 12:20:58;;;;;;;1.70;1.33;;;;;;;31.28;25.59;100374.34;6584265;27;33809;-89
2022/09/02 12:24:06;;;;;;;1.17;1.00;;;;;;;31.12;24.66;100382.28;6608162;27;33895;-89
2022/09/02 12:27:17;;;;;;;;;;;;;;;31.13;25.60;100371.97;6605477;26;34070;-89
2022/09/02 12:30:54;;;;;;;5.55;1.23;;;;;;;31.68;27.18;100376.41;6614215;26;34325;-89
2022/09/02 12:34:01;;;;;;;2.13;1.27;;;;;;;30.62;29.69;100378.69;6610680;26;33842;-89
2022/09/02 12:37:05;;;;;;;1.33;0.95;;;;;;;30.59;26.73;100359.84;6607714;27;35506;-91
2022/09/02 12:40:17;;;;;;;1.87;1.27;;;;;;;31.29;26.11;100369.63;6608519;27;35450;-91
2022/09/02 12:43:46;;;;;;;1.05;1.00;;;;;;;30.58;26.13;100366.56;6616240;26;35142;-85
2022/09/02 12:46:53;;;;;;;1.20;1.10;;;;;;;30.09;27.59;100357.03;6570823;27;32476;-89
2022/09/02 12:50:19;;;;;;;1.62;1.08;;;;;;;29.09;28.24;100358.25;6579820;27;34542;-89
2022/09/02 12:53:22;;;;;;;3.85;1.10;;;;;;;29.23;28.37;100355.53;6580620;27;34569;-89
2022/09/02 12:56:25;;;;;;;1.10;1.00;;;;;;;28.38;30.26;100356.50;6580401;27;33741;-89
2022/09/02 12:59:37;;;;;;;2.53;1.08;;;;;;;27.91;30.45;100356.22;6580777;27;33532;-89
2022/09/02 13:02:52;;;;;;;3.62;1.25;;;;;;;27.79;30.76;100356.63;6580661;26;33969;-89
2022/09/02 13:05:58;;;;;;;1.95;1.20;;;;;;;28.32;31.08;100350.19;6579882;27;35348;-89
2022/09/02 13:09:42;;;;;;;3.90;1.42;;;;;;;28.61;29.96;100340.97;6596505;27;33661;-89
2022/09/02 13:13:16;;;;;;;1.40;1.30;;;;;;;27.94;29.32;100349.28;6599282;26;35297;-89
2022/09/02 13:16:46;;;;;;;1.85;1.25;;;;;;;27.73;30.86;100349.47;6577651;27;33560;-89
2022/09/02 13:20:06;;;;;;;1.92;1.20;;;;;;;27.87;31.48;100343.25;5614261;31;338590;-87
2022/09/02 13:23:34;;;;;;;1.15;0.98;;;;;;;27.87;31.48;100343.25;5602190;31;32704;-87
2022/09/02 13:27:04;;;;;;;1.60;1.20;;;;;;;28.35;30.18;100344.06;5602206;31;32756;-87
2022/09/02 13:30:16;;;;;;;3.70;1.48;;;;;;;28.05;30.02;100336.94;5602391;31;33674;-86
2022/09/02 13:33:20;;;;;;;2.40;0.93;;;;;;;28.11;30.41;100338.56;5602512;31;33355;-86
2022/09/02 13:36:34;;;;;;;1.75;1.40;;;;;;;29.66;28.69;100337.88;5600841;31;33656;-86
2022/09/02 13:39:37;;;;;;;4.82;1.87;;;;;;;31.58;25.71;100339.38;5602262;31;34361;-86
2022/09/02 13:42:50;;;;;;;2.05;1.25;;;;;;;32.44;25.15;100326.91;5602175;31;33739;-87
2022/09/02 13:46:01;;;;;;;2.45;1.10;;;;;;;31.18;26.22;100332.88;5602253;31;33806;-87
2022/09/02 13:49:04;;;;;;;3.83;1.25;;;;;;;29.46;29.78;100331.56;5600637;31;32288;-87
2022/09/02 13:52:17;;;;;;;2.78;1.52;;;;;;;29.20;28.12;100331.19;5602234;31;34703;-86
2022/09/02 13:55:21;;;;;;;1.92;1.02;;;;;;;29.05;30.72;100321.19;5602611;31;33897;-87
2022/09/02 13:58:32;;;;;;;1.80;1.00;;;;;;;27.98;29.94;100323.47;5601234;31;32304;-87
2022/09/02 14:01:38;;;;;;;5.03;1.40;;;;;;;27.36;31.93;100330.78;5602969;31;34542;-87
2022/09/02 14:04:42;;;;;;;3.33;1.40;;;;;;;27.00;31.65;100328.28;5605286;31;32724;-87
2022/09/02 14:07:48;;;;;;;1.17;1.08;;;;;;;26.41;32.46;100326.44;5605394;31;33919;-86
2022/09/02 14:10:53;;;;;;;2.20;1.42;;;;;;;26.12;34.40;100329.06;5602569;31;33732;-88
2022/09/02 14:13:56;;;;;;;1.55;1.15;;;;;;;25.79;33.72;100331.34;5586059;31;32700;-89
2022/09/02 14:17:20;;;;;;;2.62;1.40;;;;;;;26.16;34.34;100332.94;5582935;31;33683;-89
2022/09/02 14:20:23;;;;;;;2.70;1.37;;;;;;;26.28;32.88;100325.13;5582271;31;34479;-87
2022/09/02 14:23:29;;;;;;;1.42;1.33;;;;;;;26.28;33.90;100329.84;5582612;32;33521;-86
2022/09/02 14:26:42;;;;;;;2.90;1.30;;;;;;;26.31;33.55;100327.31;5589200;32;34539;-88
2022/09/02 14:29:56;;;;;;;1.87;1.48;;;;;;;26.07;34.36;100337.38;5577144;32;34863;-87
2022/09/02 14:33:26;;;;;;;2.10;1.48;;;;;;;25.58;34.27;100327.84;5568245;32;32416;-87
2022/09/02 14:36:37;;;;;;;2.15;1.30;;;;;;;25.28;34.75;100335.03;5569127;32;33685;-86
2022/09/02 14:40:02;;;;;;;2.35;1.42;;;;;;;24.97;36.42;100330.59;5569280;32;34169;-90
2022/09/02 14:43:12;;;;;;;3.07;1.53;;;;;;;24.73;36.33;100333.06;5567841;32;31859;-87
2022/09/02 14:46:37;;;;;;;2.50;1.60;;;;;;;24.58;37.49;100329.19;5569434;32;33748;-87
2022/09/02 14:49:48;;;;;;;2.53;1.48;;;;;;;24.35;36.48;100330.47;5567938;32;32326;-87
2022/09/02 14:52:58;;;;;;;1.52;1.42;;;;;;;24.31;36.75;100336.78;5567671;32;33047;-87
2022/09/02 14:56:03;;;;;;;3.15;1.50;;;;;;;24.49;36.53;100344.56;5573832;32;33450;-87
2022/09/02 14:59:06;;;;;;;2.67;1.90;;;;;;;24.46;37.35;100331.34;5568774;32;34436;-87
2022/09/02 15:02:22;;;;;;;2.53;1.40;;;;;;;24.47;37.30;100337.69;5567375;32;33510;-87
2022/09/02 15:05:25;;;;;;;4.03;1.30;;;;;;;24.27;37.28;100335.66;5568423;32;33288;-87
2022/09/02 15:08:28;;;;;;;2.97;1.60;;;;;;;24.21;36.64;100335.63;5567977;32;33542;-87
2022/09/02 15:11:30;;;;;;;2.22;1.83;;;;;;;24.04;36.79;100342.44;5567399;31;32586;-87
2022/09/02 15:14:33;;;;;;;4.75;1.60;;;;;;;24.12;38.23;100334.50;5568183;32;32036;-87
2022/09/02 15:17:36;;;;;;;1.55;1.30;;;;;;;24.03;36.62;100333.38;5568721;32;33841;-87
2022/09/02 15:20:39;;;;;;;2.00;1.60;;;;;;;23.95;37.61;100342.13;5568150;32;33157;-87
2022/09/02 15:23:41;;;;;;;1.67;1.55;;;;;;;24.07;37.97;100339.16;5568052;32;32486;-87
2022/09/02 15:26:49;;;;;;;2.28;1.90;;;;;;;24.19;37.03;100340.59;5569153;32;33787;-87
2022/09/02 15:29:52;;;;;;;4.10;2.37;;;;;;;23.69;40.95;100344.72;5567906;32;32821;-87
2022/09/02 15:32:55;;;;;;;3.28;2.03;;;;;;;23.42;43.07;100349.47;5569112;32;34612;-87
2022/09/02 15:36:09;;;;;;;2.67;1.67;;;;;;;22.80;45.13;100359.91;5568234;32;31865;-88
2022/09/02 15:39:12;;;;;;;3.10;2.00;;;;;;;22.48;46.54;100372.72;5569284;32;34805;-87
2022/09/02 15:42:16;;;;;;;3.08;2.10;;;;;;;22.18;48.01;100372.09;5572780;32;34002;-87
